Time;durP1;ratioP1;P1;durP2;ratioP2;P2;SDS_P1;SDS_P2;PMS_P1;PMS_P2;Temp;Humidity;BMP_temperature;BMP_pressure;BME280_temperature;BME280_humidity;BME280_pressure;Samples;Min_cycle;Max_cycle;Signal;HPM_P1;HPM_P2
2022/05/12 00:01:46;;;;;;;4.30;0.75;;;;;;;;;;5017739;28;20731;-62
2022/05/12 00:04:12;;;;;;;5.72;0.90;;;;;;;;;;5013726;28;20045;-63
2022/05/12 00:06:38;;;;;;;11.75;2.85;;;;;;;;;;5019339;28;20083;-63
2022/05/12 00:09:05;;;;;;;5.80;1.35;;;;;;;;;;5010363;28;20049;-63
2022/05/12 00:11:31;;;;;;;6.38;0.98;;;;;;;;;;5020354;28;20049;-63
2022/05/12 00:13:58;;;;;;;5.53;1.30;;;;;;;;;;5005127;28;20140;-63
2022/05/12 00:16:24;;;;;;;5.07;0.82;;;;;;;;;;4995722;28;20574;-62
2022/05/12 00:18:50;;;;;;;7.25;1.15;;;;;;;;;;5012003;28;20406;-63
2022/05/12 00:21:16;;;;;;;7.97;1.20;;;;;;;;;;5012490;28;20436;-63
2022/05/12 00:23:56;;;;;;;2.63;0.80;;;;;;;;;;4994293;28;20493;-63
2022/05/12 00:26:23;;;;;;;6.63;1.30;;;;;;;;;;5009357;28;20374;-63
2022/05/12 00:28:49;;;;;;;6.90;1.25;;;;;;;;;;5004811;28;20489;-63
2022/05/12 00:31:15;;;;;;;7.47;1.20;;;;;;;;;;5015806;28;20087;-62
2022/05/12 00:33:41;;;;;;;6.75;1.83;;;;;;;;;;5002094;28;20056;-63
2022/05/12 00:36:08;;;;;;;5.90;1.08;;;;;;;;;;4997938;28;20084;-63
2022/05/12 00:38:34;;;;;;;4.85;1.30;;;;;;;;;;5018357;28;20045;-63
2022/05/12 00:41:00;;;;;;;5.85;1.33;;;;;;;;;;5004333;28;20069;-62
2022/05/12 00:43:33;;;;;;;5.22;1.23;;;;;;;;;;5009604;28;20132;-62
2022/05/12 00:45:59;;;;;;;6.68;1.50;;;;;;;;;;5019138;28;20428;-62
2022/05/12 00:48:25;;;;;;;5.05;1.17;;;;;;;;;;5026322;28;20453;-62
2022/05/12 00:50:52;;;;;;;5.07;0.82;;;;;;;;;;5006224;28;20096;-62
2022/05/12 00:53:19;;;;;;;5.20;1.35;;;;;;;;;;5018097;28;20073;-62
2022/05/12 00:55:45;;;;;;;4.18;1.30;;;;;;;;;;4998505;28;20522;-63
2022/05/12 00:58:15;;;;;;;8.35;1.70;;;;;;;;;;5011254;28;20482;-62
2022/05/12 01:00:41;;;;;;;8.65;2.17;;;;;;;;;;5009886;28;20437;-62
2022/05/12 01:03:10;;;;;;;5.57;1.88;;;;;;;;;;5016220;28;20050;-62
2022/05/12 01:05:37;;;;;;;6.47;1.67;;;;;;;;;;5016836;28;20411;-62
2022/05/12 01:08:03;;;;;;;8.05;1.83;;;;;;;;;;5009347;28;20037;-62
2022/05/12 01:10:29;;;;;;;7.60;1.67;;;;;;;;;;4999346;28;20053;-63
2022/05/12 01:12:56;;;;;;;6.25;2.20;;;;;;;;;;5015081;28;20495;-63
2022/05/12 01:15:24;;;;;;;11.10;2.65;;;;;;;;;;5018016;28;20042;-62
2022/05/12 01:17:50;;;;;;;9.13;2.65;;;;;;;;;;5012763;28;20045;-63
2022/05/12 01:20:17;;;;;;;8.48;2.70;;;;;;;;;;4997990;28;20383;-63
2022/05/12 01:22:54;;;;;;;14.40;2.53;;;;;;;;;;5013192;28;20042;-62
2022/05/12 01:25:22;;;;;;;8.50;2.30;;;;;;;;;;5013640;28;20042;-63
2022/05/12 01:27:48;;;;;;;9.10;2.60;;;;;;;;;;5016526;28;20065;-63
2022/05/12 01:30:16;;;;;;;9.95;2.08;;;;;;;;;;5013245;28;20572;-63
2022/05/12 01:32:44;;;;;;;11.75;2.42;;;;;;;;;;5012030;28;20062;-63
2022/05/12 01:35:10;;;;;;;11.23;2.75;;;;;;;;;;5009251;28;20053;-63
2022/05/12 01:37:39;;;;;;;8.10;2.10;;;;;;;;;;5011568;28;20049;-63
2022/05/12 01:40:05;;;;;;;9.82;2.50;;;;;;;;;;5013027;28;20065;-63
2022/05/12 01:42:31;;;;;;;11.95;2.70;;;;;;;;;;5014671;28;20120;-63
2022/05/12 01:44:58;;;;;;;9.40;2.15;;;;;;;;;;5015590;28;20405;-63
2022/05/12 01:47:24;;;;;;;9.82;3.00;;;;;;;;;;5015301;28;20195;-62
2022/05/12 01:49:50;;;;;;;15.73;3.00;;;;;;;;;;5019259;28;20047;-63
2022/05/12 01:52:16;;;;;;;11.90;3.17;;;;;;;;;;5013096;28;20140;-63
2022/05/12 01:54:42;;;;;;;11.68;3.28;;;;;;;;;;5014984;28;20041;-63
2022/05/12 01:57:09;;;;;;;14.77;3.00;;;;;;;;;;5016184;28;20125;-62
2022/05/12 01:59:35;;;;;;;12.27;3.35;;;;;;;;;;5006192;28;20053;-62
2022/05/12 02:02:03;;;;;;;14.90;3.00;;;;;;;;;;5005033;28;20049;-63
2022/05/12 02:04:29;;;;;;;9.73;2.58;;;;;;;;;;5016253;28;20045;-63
2022/05/12 02:06:55;;;;;;;13.00;3.08;;;;;;;;;;5018395;28;20049;-63
2022/05/12 02:09:21;;;;;;;13.10;3.03;;;;;;;;;;4999056;28;20099;-63
2022/05/12 02:11:47;;;;;;;10.15;3.38;;;;;;;;;;5012268;28;20096;-63
2022/05/12 02:14:14;;;;;;;14.70;3.58;;;;;;;;;;5014700;28;20384;-63
2022/05/12 02:16:40;;;;;;;10.50;2.88;;;;;;;;;;5011061;28;20034;-62
2022/05/12 02:19:08;;;;;;;11.55;2.72;;;;;;;;;;5016634;28;20045;-63
2022/05/12 02:21:34;;;;;;;9.40;3.08;;;;;;;;;;5016622;28;20400;-63
2022/05/12 02:24:00;;;;;;;16.08;3.70;;;;;;;;;;4993037;28;20069;-63
2022/05/12 02:26:27;;;;;;;11.35;2.97;;;;;;;;;;5014015;28;20040;-63
2022/05/12 02:28:53;;;;;;;12.68;2.92;;;;;;;;;;5014700;28;20052;-63
2022/05/12 02:31:19;;;;;;;18.52;3.20;;;;;;;;;;5008600;28;20045;-63
2022/05/12 02:33:45;;;;;;;10.93;3.90;;;;;;;;;;5005786;28;20069;-63
2022/05/12 02:36:12;;;;;;;15.20;3.38;;;;;;;;;;4998152;28;20176;-62
2022/05/12 02:38:39;;;;;;;13.02;3.30;;;;;;;;;;5009113;28;20453;-62
2022/05/12 02:41:06;;;;;;;17.38;3.85;;;;;;;;;;5014813;28;20124;-62
2022/05/12 02:43:32;;;;;;;10.77;3.47;;;;;;;;;;5012004;28;20043;-62
2022/05/12 02:46:00;;;;;;;19.90;5.03;;;;;;;;;;5017822;28;20044;-63
2022/05/12 02:48:27;;;;;;;13.27;3.58;;;;;;;;;;5015592;28;20370;-63
2022/05/12 02:50:54;;;;;;;15.43;4.63;;;;;;;;;;5008678;28;20099;-63
2022/05/12 02:53:20;;;;;;;15.98;4.57;;;;;;;;;;5009544;28;20038;-63
2022/05/12 02:55:46;;;;;;;14.65;4.43;;;;;;;;;;5011436;28;20143;-63
2022/05/12 02:58:13;;;;;;;15.52;5.05;;;;;;;;;;5003726;28;20056;-63
2022/05/12 03:00:40;;;;;;;12.25;4.40;;;;;;;;;;5001173;28;20038;-63
2022/05/12 03:03:07;;;;;;;20.52;4.95;;;;;;;;;;5014066;28;20060;-63
2022/05/12 03:05:33;;;;;;;13.68;4.07;;;;;;;;;;5013636;28;20053;-62
2022/05/12 03:08:00;;;;;;;13.63;4.57;;;;;;;;;;5004892;28;20098;-63
2022/05/12 03:10:26;;;;;;;15.93;5.63;;;;;;;;;;5016742;28;20119;-63
2022/05/12 03:12:52;;;;;;;14.23;5.35;;;;;;;;;;4998787;28;20062;-63
2022/05/12 03:15:18;;;;;;;14.88;4.50;;;;;;;;;;5010739;28;20393;-63
2022/05/12 03:17:45;;;;;;;11.63;4.55;;;;;;;;;;5013411;28;20061;-63
2022/05/12 03:20:14;;;;;;;12.88;4.28;;;;;;;;;;4999773;28;20045;-62
2022/05/12 03:22:40;;;;;;;15.50;5.03;;;;;;;;;;5013717;28;21825;-63
2022/05/12 03:25:09;;;;;;;16.90;5.18;;;;;;;;;;5018717;28;20171;-62
2022/05/12 03:27:35;;;;;;;12.40;4.97;;;;;;;;;;5022555;28;20145;-63
2022/05/12 03:30:02;;;;;;;11.57;5.07;;;;;;;;;;5015138;28;20045;-62
2022/05/12 03:32:28;;;;;;;14.18;5.22;;;;;;;;;;5018310;28;20109;-63
2022/05/12 03:34:55;;;;;;;10.73;3.97;;;;;;;;;;5022349;28;20049;-63
2022/05/12 03:37:21;;;;;;;10.95;4.78;;;;;;;;;;5016865;28;20525;-63
2022/05/12 03:39:47;;;;;;;14.60;5.20;;;;;;;;;;5015806;28;20523;-62
2022/05/12 03:42:15;;;;;;;13.15;5.63;;;;;;;;;;5008464;28;20060;-63
2022/05/12 03:44:49;;;;;;;16.65;4.88;;;;;;;;;;5000585;28;20049;-63
2022/05/12 03:47:19;;;;;;;13.20;5.05;;;;;;;;;;5012370;28;20041;-63
2022/05/12 03:49:46;;;;;;;18.40;6.20;;;;;;;;;;5015335;28;20064;-63
2022/05/12 03:52:13;;;;;;;14.57;5.10;;;;;;;;;;5015470;28;20049;-63
2022/05/12 03:54:40;;;;;;;10.20;4.88;;;;;;;;;;5017104;28;20049;-62
2022/05/12 03:57:06;;;;;;;18.20;5.68;;;;;;;;;;5004001;28;20061;-63
2022/05/12 03:59:33;;;;;;;13.48;6.30;;;;;;;;;;5020371;28;20200;-63
2022/05/12 04:01:59;;;;;;;11.88;5.57;;;;;;;;;;5002119;28;20077;-63
2022/05/12 04:04:25;;;;;;;10.27;5.38;;;;;;;;;;5014416;28;20470;-63
2022/05/12 04:06:51;;;;;;;14.95;5.35;;;;;;;;;;5000525;28;20045;-63
2022/05/12 04:09:18;;;;;;;20.60;5.88;;;;;;;;;;5015394;28;20041;-62
2022/05/12 04:11:44;;;;;;;13.98;6.05;;;;;;;;;;5015231;28;20042;-63
2022/05/12 04:14:10;;;;;;;14.45;5.85;;;;;;;;;;5006911;28;20053;-62
2022/05/12 04:16:36;;;;;;;10.38;5.10;;;;;;;;;;5016698;28;20492;-63
2022/05/12 04:19:05;;;;;;;16.23;6.28;;;;;;;;;;5021784;28;20042;-63
2022/05/12 04:21:34;;;;;;;12.73;5.65;;;;;;;;;;5020630;28;20037;-62
2022/05/12 04:24:03;;;;;;;11.68;6.43;;;;;;;;;;5014583;28;20060;-63
2022/05/12 04:26:29;;;;;;;12.45;5.35;;;;;;;;;;5016717;28;20061;-63
2022/05/12 04:28:55;;;;;;;14.95;5.30;;;;;;;;;;5019603;28;20045;-63
2022/05/12 04:31:21;;;;;;;12.63;4.78;;;;;;;;;;5014657;28;20537;-62
2022/05/12 04:36:32;;;;;;;11.50;4.50;;;;;;;;;;5014415;28;20050;-63
2022/05/12 04:38:59;;;;;;;8.80;4.88;;;;;;;;;;5012111;28;20058;-63
2022/05/12 04:41:26;;;;;;;14.50;5.40;;;;;;;;;;5010346;28;20092;-63
2022/05/12 04:43:54;;;;;;;12.43;6.13;;;;;;;;;;5011930;28;20092;-63
2022/05/12 04:46:20;;;;;;;16.17;5.72;;;;;;;;;;5014596;28;22081;-63
2022/05/12 04:48:47;;;;;;;17.77;6.90;;;;;;;;;;5012625;28;20417;-63
2022/05/12 04:51:13;;;;;;;12.13;5.57;;;;;;;;;;5006219;28;20041;-63
2022/05/12 04:53:39;;;;;;;15.15;6.53;;;;;;;;;;5017190;28;20072;-63
2022/05/12 04:56:05;;;;;;;20.08;7.40;;;;;;;;;;5016794;28;20769;-62
2022/05/12 04:58:31;;;;;;;19.73;6.93;;;;;;;;;;4999908;28;20091;-62
2022/05/12 05:00:57;;;;;;;20.05;6.65;;;;;;;;;;5014567;28;20061;-62
2022/05/12 05:03:24;;;;;;;16.67;7.38;;;;;;;;;;5011449;28;20053;-62
2022/05/12 05:05:50;;;;;;;13.68;7.03;;;;;;;;;;5014440;28;21898;-62
2022/05/12 05:08:18;;;;;;;21.25;7.63;;;;;;;;;;4999871;28;20050;-62
2022/05/12 05:10:44;;;;;;;15.23;7.65;;;;;;;;;;5015975;28;20440;-62
2022/05/12 05:13:11;;;;;;;18.98;7.75;;;;;;;;;;5020826;28;20108;-63
2022/05/12 05:15:37;;;;;;;20.50;8.45;;;;;;;;;;5006267;28;20140;-63
2022/05/12 05:18:03;;;;;;;21.98;8.95;;;;;;;;;;5016262;28;20053;-63
2022/05/12 05:20:30;;;;;;;18.23;9.63;;;;;;;;;;5015548;28;20851;-64
2022/05/12 05:22:56;;;;;;;21.35;8.20;;;;;;;;;;5011459;28;20355;-63
2022/05/12 05:25:23;;;;;;;19.70;8.27;;;;;;;;;;5015538;28;20042;-63
2022/05/12 05:27:50;;;;;;;22.83;8.20;;;;;;;;;;5010490;28;20050;-63
2022/05/12 05:30:18;;;;;;;27.95;9.75;;;;;;;;;;5018742;28;20034;-63
2022/05/12 05:32:44;;;;;;;22.35;7.88;;;;;;;;;;4993582;28;20058;-63
2022/05/12 05:35:12;;;;;;;18.83;8.32;;;;;;;;;;5008354;28;20046;-63
2022/05/12 05:37:38;;;;;;;27.38;8.50;;;;;;;;;;5012769;28;20050;-63
2022/05/12 05:40:05;;;;;;;22.27;7.97;;;;;;;;;;5025099;28;20485;-63
2022/05/12 05:42:32;;;;;;;20.30;8.23;;;;;;;;;;5020010;28;20768;-63
2022/05/12 05:44:58;;;;;;;19.48;7.20;;;;;;;;;;5017535;28;20077;-62
2022/05/12 05:47:25;;;;;;;36.03;8.00;;;;;;;;;;5026012;28;20040;-62
2022/05/12 05:49:51;;;;;;;22.92;7.07;;;;;;;;;;5020649;28;20698;-63
2022/05/12 05:55:02;;;;;;;20.15;7.00;;;;;;;;;;5014296;28;20053;-63
2022/05/12 05:57:30;;;;;;;16.17;6.97;;;;;;;;;;5017170;28;20532;-63
2022/05/12 05:59:57;;;;;;;19.27;7.30;;;;;;;;;;4996864;28;20033;-63
2022/05/12 06:02:24;;;;;;;16.48;6.60;;;;;;;;;;5017203;28;20148;-63
2022/05/12 06:04:50;;;;;;;28.08;6.57;;;;;;;;;;5014725;28;20501;-63
2022/05/12 06:07:16;;;;;;;16.48;6.72;;;;;;;;;;5017324;28;20624;-63
2022/05/12 06:09:43;;;;;;;18.92;6.15;;;;;;;;;;5011792;28;20045;-63
2022/05/12 06:12:09;;;;;;;22.23;6.22;;;;;;;;;;5000359;28;20115;-63
2022/05/12 06:14:36;;;;;;;17.45;5.70;;;;;;;;;;5017529;28;20559;-63
2022/05/12 06:17:03;;;;;;;17.98;5.97;;;;;;;;;;5016873;28;20053;-63
2022/05/12 06:19:29;;;;;;;21.38;4.50;;;;;;;;;;4996482;28;20049;-63
2022/05/12 06:21:55;;;;;;;13.07;3.88;;;;;;;;;;5023212;28;20042;-63
2022/05/12 06:24:21;;;;;;;15.75;3.70;;;;;;;;;;5020874;28;20049;-63
2022/05/12 06:26:47;;;;;;;27.95;5.13;;;;;;;;;;5005266;28;20053;-63
2022/05/12 06:29:14;;;;;;;14.27;3.50;;;;;;;;;;5011238;28;20120;-63
2022/05/12 06:31:41;;;;;;;15.48;3.38;;;;;;;;;;5014296;28;20113;-63
2022/05/12 06:34:07;;;;;;;19.67;4.10;;;;;;;;;;5016792;28;20498;-62
2022/05/12 06:36:33;;;;;;;16.83;3.83;;;;;;;;;;5008375;28;20056;-63
2022/05/12 06:39:00;;;;;;;14.15;3.35;;;;;;;;;;5017918;28;20209;-63
2022/05/12 06:41:26;;;;;;;15.10;3.47;;;;;;;;;;4998005;28;20038;-63
2022/05/12 06:43:53;;;;;;;13.82;3.20;;;;;;;;;;5010606;28;20155;-63
2022/05/12 06:46:21;;;;;;;15.70;2.78;;;;;;;;;;5019143;28;20048;-63
2022/05/12 06:48:47;;;;;;;12.07;3.17;;;;;;;;;;5013840;28;20042;-63
2022/05/12 06:51:14;;;;;;;20.02;3.47;;;;;;;;;;5019687;28;20049;-63
2022/05/12 06:53:40;;;;;;;18.98;3.13;;;;;;;;;;4993787;28;20046;-63
2022/05/12 06:56:07;;;;;;;23.00;2.75;;;;;;;;;;5010107;28;20079;-63
2022/05/12 06:58:34;;;;;;;13.45;3.00;;;;;;;;;;5011934;28;20050;-63
2022/05/12 07:01:00;;;;;;;16.77;2.67;;;;;;;;;;5018540;28;20494;-63
2022/05/12 07:03:27;;;;;;;15.07;3.13;;;;;;;;;;5002769;28;20053;-62
2022/05/12 07:05:54;;;;;;;21.58;3.72;;;;;;;;;;5011942;28;20478;-62
2022/05/12 07:08:20;;;;;;;11.95;2.92;;;;;;;;;;5004203;28;20045;-63
2022/05/12 07:10:46;;;;;;;14.32;2.78;;;;;;;;;;5014096;28;20037;-63
2022/05/12 07:13:18;;;;;;;17.15;2.90;;;;;;;;;;5020913;28;20128;-63
2022/05/12 07:15:47;;;;;;;11.55;2.63;;;;;;;;;;5017476;28;20038;-63
2022/05/12 07:18:14;;;;;;;16.15;3.25;;;;;;;;;;5018333;28;20073;-62
2022/05/12 07:28:55;;;;;;;11.77;2.67;;;;;;;;;;5010832;28;20050;-63
2022/05/12 07:31:22;;;;;;;18.05;3.03;;;;;;;;;;5011418;28;20061;-63
2022/05/12 07:33:49;;;;;;;13.48;3.42;;;;;;;;;;5012534;28;20050;-63
2022/05/12 07:36:23;;;;;;;11.13;2.45;;;;;;;;;;5012244;28;20054;-63
2022/05/12 07:38:49;;;;;;;14.95;2.92;;;;;;;;;;5021053;28;20048;-63
2022/05/12 07:41:16;;;;;;;16.50;2.55;;;;;;;;;;5003488;28;20074;-63
2022/05/12 07:43:43;;;;;;;13.77;2.85;;;;;;;;;;5012949;28;20049;-63
2022/05/12 07:46:11;;;;;;;12.05;2.42;;;;;;;;;;5011484;28;20045;-63
2022/05/12 07:48:38;;;;;;;10.88;2.15;;;;;;;;;;5014858;28;20042;-63
2022/05/12 07:51:05;;;;;;;14.05;2.15;;;;;;;;;;5010598;28;20038;-63
2022/05/12 07:53:32;;;;;;;13.52;2.90;;;;;;;;;;5013878;28;20137;-63
2022/05/12 07:55:58;;;;;;;15.65;2.38;;;;;;;;;;5009360;28;20046;-63
2022/05/12 07:58:25;;;;;;;14.02;2.30;;;;;;;;;;5014084;28;20042;-63
2022/05/12 08:00:53;;;;;;;11.77;3.25;;;;;;;;;;5004492;28;20041;-63
2022/05/12 08:03:20;;;;;;;16.55;3.92;;;;;;;;;;5011815;28;20494;-63
2022/05/12 08:05:46;;;;;;;14.95;3.78;;;;;;;;;;5018088;28;20049;-63
2022/05/12 08:08:12;;;;;;;14.82;2.42;;;;;;;;;;5017504;28;20092;-63
2022/05/12 08:10:39;;;;;;;12.73;2.60;;;;;;;;;;5018952;28;20069;-63
2022/05/12 08:13:06;;;;;;;11.18;2.42;;;;;;;;;;5017409;28;20053;-63
2022/05/12 08:15:33;;;;;;;9.40;2.15;;;;;;;;;;5006195;28;20042;-63
2022/05/12 08:17:59;;;;;;;15.93;2.90;;;;;;;;;;5023783;28;20125;-63
2022/05/12 08:20:25;;;;;;;15.60;2.08;;;;;;;;;;5013405;28;20132;-63
2022/05/12 08:22:51;;;;;;;10.98;1.88;;;;;;;;;;5017497;28;20046;-63
2022/05/12 08:25:18;;;;;;;9.05;1.58;;;;;;;;;;5014230;28;20038;-63
2022/05/12 08:27:45;;;;;;;9.45;2.05;;;;;;;;;;5013316;28;20038;-63
2022/05/12 08:30:13;;;;;;;12.02;2.00;;;;;;;;;;5012749;28;20050;-63
2022/05/12 08:32:39;;;;;;;11.98;1.98;;;;;;;;;;5012834;28;20061;-63
2022/05/12 08:35:06;;;;;;;12.48;2.60;;;;;;;;;;5016538;28;20450;-63
2022/05/12 08:37:32;;;;;;;10.38;2.03;;;;;;;;;;5012197;28;20489;-63
2022/05/12 08:39:58;;;;;;;10.95;1.88;;;;;;;;;;5013352;28;20046;-63
2022/05/12 08:42:32;;;;;;;9.93;2.22;;;;;;;;;;5020160;28;20501;-63
2022/05/12 08:44:59;;;;;;;13.50;2.40;;;;;;;;;;5011540;28;20167;-63
2022/05/12 08:47:28;;;;;;;8.65;2.38;;;;;;;;;;5012457;28;20038;-63
2022/05/12 08:49:55;;;;;;;11.90;2.53;;;;;;;;;;5016412;28;20054;-63
2022/05/12 08:52:24;;;;;;;10.02;2.03;;;;;;;;;;5015558;28;20064;-63
2022/05/12 08:54:56;;;;;;;11.88;2.72;;;;;;;;;;5012607;28;20046;-63
2022/05/12 08:57:32;;;;;;;12.52;2.25;;;;;;;;;;5015662;28;20038;-63
2022/05/12 08:59:59;;;;;;;10.32;2.70;;;;;;;;;;5015360;28;20509;-63
2022/05/12 09:02:36;;;;;;;11.27;2.60;;;;;;;;;;5015779;28;20414;-63
2022/05/12 09:05:06;;;;;;;13.25;3.20;;;;;;;;;;5015180;28;20387;-63
2022/05/12 09:07:37;;;;;;;10.65;2.15;;;;;;;;;;5022333;28;20087;-63
2022/05/12 09:10:10;;;;;;;10.75;1.98;;;;;;;;;;5012438;28;20505;-63
2022/05/12 09:12:49;;;;;;;9.63;2.05;;;;;;;;;;5011494;28;20438;-63
2022/05/12 09:15:21;;;;;;;7.00;2.00;;;;;;;;;;5016076;28;20050;-63
2022/05/12 09:17:52;;;;;;;11.93;2.42;;;;;;;;;;5017196;28;20374;-64
2022/05/12 09:20:19;;;;;;;9.27;1.60;;;;;;;;;;5014687;28;20045;-63
2022/05/12 09:22:45;;;;;;;14.05;2.20;;;;;;;;;;5019580;28;20057;-63
2022/05/12 09:25:13;;;;;;;9.93;2.10;;;;;;;;;;5015326;28;20052;-63
2022/05/12 09:27:44;;;;;;;10.27;1.67;;;;;;;;;;5013438;28;20103;-63
2022/05/12 09:30:11;;;;;;;6.45;1.48;;;;;;;;;;5014194;28;20046;-63
2022/05/12 09:32:39;;;;;;;8.55;1.90;;;;;;;;;;5004963;28;20111;-63
2022/05/12 09:35:14;;;;;;;10.30;1.80;;;;;;;;;;5011381;28;20402;-63
2022/05/12 09:37:41;;;;;;;13.70;1.65;;;;;;;;;;5017227;28;20132;-63
2022/05/12 09:40:15;;;;;;;7.45;1.45;;;;;;;;;;5015735;28;20054;-63
2022/05/12 09:42:45;;;;;;;8.60;2.10;;;;;;;;;;5011092;28;20072;-63
2022/05/12 09:45:22;;;;;;;7.82;2.75;;;;;;;;;;5015437;28;20049;-64
2022/05/12 09:47:48;;;;;;;8.25;1.65;;;;;;;;;;5017030;28;20062;-63
2022/05/12 09:50:22;;;;;;;8.73;1.88;;;;;;;;;;5011829;28;20063;-64
2022/05/12 09:52:55;;;;;;;10.20;1.58;;;;;;;;;;5012078;28;20041;-64
2022/05/12 09:55:27;;;;;;;9.38;1.92;;;;;;;;;;5015090;28;20037;-64
2022/05/12 09:57:58;;;;;;;5.65;1.33;;;;;;;;;;5014854;28;20107;-64
2022/05/12 10:00:26;;;;;;;4.70;1.13;;;;;;;;;;5015242;28;20052;-64
2022/05/12 10:08:45;;;;;;;7.68;1.65;;;;;;;;;;5011223;28;20390;-64
2022/05/12 10:11:13;;;;;;;7.30;1.25;;;;;;;;;;5011218;28;20168;-64
2022/05/12 10:13:47;;;;;;;9.88;1.10;;;;;;;;;;5011229;28;20540;-64
2022/05/12 10:16:15;;;;;;;4.32;1.20;;;;;;;;;;5010852;28;20140;-64
2022/05/12 10:18:44;;;;;;;9.23;1.65;;;;;;;;;;5010520;28;20045;-64
2022/05/12 10:21:18;;;;;;;5.68;1.52;;;;;;;;;;5012998;28;20042;-64
2022/05/12 10:23:52;;;;;;;8.98;1.40;;;;;;;;;;5015128;28;20056;-64
2022/05/12 10:26:32;;;;;;;6.63;1.38;;;;;;;;;;5013186;28;20120;-64
2022/05/12 10:29:02;;;;;;;7.00;1.48;;;;;;;;;;5012421;28;20413;-64
2022/05/12 10:31:44;;;;;;;7.72;1.52;;;;;;;;;;4995431;28;20477;-64
2022/05/12 10:34:19;;;;;;;4.68;1.30;;;;;;;;;;5016641;28;20045;-64
2022/05/12 10:36:52;;;;;;;7.95;1.55;;;;;;;;;;5009824;28;20046;-64
2022/05/12 10:39:24;;;;;;;8.18;1.55;;;;;;;;;;5004347;28;20046;-64
2022/05/12 10:41:57;;;;;;;8.07;1.67;;;;;;;;;;5012973;28;20080;-64
2022/05/12 10:44:33;;;;;;;6.35;1.35;;;;;;;;;;5018080;28;20729;-64
2022/05/12 10:47:04;;;;;;;8.13;1.92;;;;;;;;;;4992450;28;20042;-64
2022/05/12 10:49:32;;;;;;;9.55;1.75;;;;;;;;;;5005902;28;20095;-64
2022/05/12 10:52:08;;;;;;;5.35;1.38;;;;;;;;;;5013253;28;20120;-64
2022/05/12 10:54:34;;;;;;;8.00;1.60;;;;;;;;;;5005701;28;20038;-64
2022/05/12 10:57:03;;;;;;;7.22;1.50;;;;;;;;;;5013734;28;20077;-64
2022/05/12 10:59:38;;;;;;;8.90;1.65;;;;;;;;;;5014809;28;20096;-64
2022/05/12 11:02:09;;;;;;;6.93;1.35;;;;;;;;;;5010425;28;20050;-64
2022/05/12 11:04:41;;;;;;;7.40;1.48;;;;;;;;;;5010883;28;20042;-64
2022/05/12 11:07:15;;;;;;;5.68;1.50;;;;;;;;;;5010960;28;20041;-64
2022/05/12 11:09:50;;;;;;;5.70;1.27;;;;;;;;;;5017171;28;20049;-64
2022/05/12 11:12:27;;;;;;;11.38;2.10;;;;;;;;;;5017103;28;20042;-64
2022/05/12 11:14:56;;;;;;;4.47;1.13;;;;;;;;;;5010438;28;20096;-64
2022/05/12 11:17:29;;;;;;;7.65;1.45;;;;;;;;;;5014233;28;20041;-64
2022/05/12 11:19:59;;;;;;;5.63;1.50;;;;;;;;;;5013897;28;20050;-64
2022/05/12 11:22:35;;;;;;;6.45;1.65;;;;;;;;;;5014295;28;20037;-63
2022/05/12 11:25:06;;;;;;;5.13;1.30;;;;;;;;;;5016330;28;20046;-64
2022/05/12 11:27:36;;;;;;;4.07;1.10;;;;;;;;;;5011496;28;20053;-64
2022/05/12 11:30:12;;;;;;;12.82;1.95;;;;;;;;;;5007651;28;20577;-64
2022/05/12 11:32:45;;;;;;;8.00;1.60;;;;;;;;;;5013403;28;20127;-63
2022/05/12 11:35:13;;;;;;;6.32;1.40;;;;;;;;;;5011039;28;20114;-64
2022/05/12 11:37:43;;;;;;;9.65;1.75;;;;;;;;;;5011103;28;20119;-64
2022/05/12 11:40:11;;;;;;;6.97;2.15;;;;;;;;;;5015396;28;21498;-64
2022/05/12 11:45:42;;;;;;;6.03;1.52;;;;;;;;;;5012653;28;20045;-64
2022/05/12 11:48:15;;;;;;;8.30;1.70;;;;;;;;;;5020456;28;20412;-64
2022/05/12 11:50:45;;;;;;;7.07;2.15;;;;;;;;;;5021463;28;20059;-64
2022/05/12 11:53:17;;;;;;;9.23;1.77;;;;;;;;;;5000999;28;20508;-64
2022/05/12 11:56:01;;;;;;;9.47;2.00;;;;;;;;;;5008724;28;20056;-63
2022/05/12 11:58:40;;;;;;;14.10;2.55;;;;;;;;;;5017163;28;20148;-64
2022/05/12 12:01:14;;;;;;;7.38;1.55;;;;;;;;;;4997620;28;20062;-64
2022/05/12 12:03:49;;;;;;;5.05;1.77;;;;;;;;;;5003621;28;20046;-63
2022/05/12 12:06:35;;;;;;;6.90;1.27;;;;;;;;;;5010679;28;20038;-63
2022/05/12 12:09:21;;;;;;;7.05;1.67;;;;;;;;;;5015875;28;20042;-64
2022/05/12 12:11:47;;;;;;;8.60;2.17;;;;;;;;;;5016850;28;20485;-63
2022/05/12 12:14:33;;;;;;;5.55;1.38;;;;;;;;;;5023483;28;20377;-64
2022/05/12 12:17:02;;;;;;;7.72;1.60;;;;;;;;;;5018393;28;20513;-63
2022/05/12 12:19:47;;;;;;;4.82;1.33;;;;;;;;;;5021623;28;20033;-63
2022/05/12 12:22:20;;;;;;;5.57;1.33;;;;;;;;;;5017040;28;20072;-63
2022/05/12 12:25:01;;;;;;;6.72;1.85;;;;;;;;;;5009805;28;20069;-64
2022/05/12 12:27:31;;;;;;;6.55;1.38;;;;;;;;;;5024383;28;20113;-63
2022/05/12 12:30:17;;;;;;;6.53;1.42;;;;;;;;;;5011657;28;20045;-63
2022/05/12 12:32:43;;;;;;;5.28;1.55;;;;;;;;;;5019875;28;20065;-64
2022/05/12 12:35:28;;;;;;;7.25;1.67;;;;;;;;;;5018495;28;20104;-63
2022/05/12 12:37:55;;;;;;;9.30;1.50;;;;;;;;;;5020472;28;20161;-64
2022/05/12 12:40:33;;;;;;;7.07;1.80;;;;;;;;;;5019249;28;20092;-63
2022/05/12 12:43:03;;;;;;;6.22;1.38;;;;;;;;;;5019067;28;20513;-64
2022/05/12 12:45:29;;;;;;;8.95;2.13;;;;;;;;;;5020263;28;20092;-63
2022/05/12 12:47:56;;;;;;;7.78;1.60;;;;;;;;;;5026224;28;20361;-63
2022/05/12 12:50:42;;;;;;;8.68;1.75;;;;;;;;;;5018959;28;20033;-63
2022/05/12 12:56:30;;;;;;;3.97;1.23;;;;;;;;;;5018641;28;20128;-64
2022/05/12 12:58:57;;;;;;;6.15;1.15;;;;;;;;;;5014226;28;20045;-64
2022/05/12 13:01:23;;;;;;;5.82;1.67;;;;;;;;;;5024245;28;20049;-64
2022/05/12 13:03:52;;;;;;;5.20;1.70;;;;;;;;;;5019821;28;20050;-64
2022/05/12 13:06:28;;;;;;;6.50;1.35;;;;;;;;;;5013744;28;20049;-64
2022/05/12 13:08:59;;;;;;;6.93;1.42;;;;;;;;;;5014084;28;20493;-64
2022/05/12 13:11:26;;;;;;;5.07;1.40;;;;;;;;;;5018164;28;20441;-63
2022/05/12 13:13:54;;;;;;;7.13;1.40;;;;;;;;;;5012560;28;20052;-63
2022/05/12 13:16:23;;;;;;;3.60;0.88;;;;;;;;;;5019317;28;20050;-62
2022/05/12 13:18:50;;;;;;;9.05;1.45;;;;;;;;;;5011291;28;20049;-63
2022/05/12 13:21:21;;;;;;;20.65;2.15;;;;;;;;;;5018724;28;20473;-63
2022/05/12 13:23:58;;;;;;;4.78;1.27;;;;;;;;;;5012428;28;20041;-63
2022/05/12 13:26:24;;;;;;;10.35;1.45;;;;;;;;;;5006261;28;20125;-64
2022/05/12 13:28:50;;;;;;;6.88;1.25;;;;;;;;;;5014966;28;20121;-63
2022/05/12 13:31:23;;;;;;;8.45;1.45;;;;;;;;;;5022461;28;20041;-64
2022/05/12 13:33:59;;;;;;;4.38;1.65;;;;;;;;;;5018944;28;20054;-63
2022/05/12 13:36:29;;;;;;;7.57;1.70;;;;;;;;;;5022034;28;20044;-64
2022/05/12 13:38:56;;;;;;;5.63;1.42;;;;;;;;;;5022960;28;20045;-64
2022/05/12 13:41:26;;;;;;;6.28;1.50;;;;;;;;;;5017912;28;20103;-63
2022/05/12 13:43:52;;;;;;;5.43;1.45;;;;;;;;;;5013775;28;20045;-63
2022/05/12 13:46:19;;;;;;;5.90;1.17;;;;;;;;;;5018096;28;20092;-63
2022/05/12 13:48:55;;;;;;;5.35;1.20;;;;;;;;;;5006829;28;20058;-64
2022/05/12 13:51:41;;;;;;;8.02;1.92;;;;;;;;;;5015148;28;20743;-63
2022/05/12 13:54:09;;;;;;;6.28;1.48;;;;;;;;;;5002029;28;20041;-64
2022/05/12 13:56:37;;;;;;;7.82;1.60;;;;;;;;;;5016539;28;20098;-63
2022/05/12 13:59:20;;;;;;;5.32;1.55;;;;;;;;;;5013859;28;20046;-64
2022/05/12 14:01:46;;;;;;;7.17;1.20;;;;;;;;;;5014466;28;20042;-63
2022/05/12 14:04:20;;;;;;;6.93;1.27;;;;;;;;;;5021157;28;20312;-63
2022/05/12 14:06:46;;;;;;;11.02;1.70;;;;;;;;;;5021107;28;20053;-63
2022/05/12 14:09:15;;;;;;;5.90;1.30;;;;;;;;;;5006249;28;20053;-63
2022/05/12 14:11:41;;;;;;;10.90;2.25;;;;;;;;;;5025639;28;20121;-64
2022/05/12 14:19:40;;;;;;;7.22;1.23;;;;;;;;;;5016871;28;20045;-63
2022/05/12 14:22:08;;;;;;;6.53;1.50;;;;;;;;;;5020967;28;20143;-64
2022/05/12 14:24:35;;;;;;;8.57;1.20;;;;;;;;;;5021089;28;20500;-63
2022/05/12 14:27:01;;;;;;;6.00;1.15;;;;;;;;;;5024899;28;20543;-63
2022/05/12 14:29:29;;;;;;;4.80;1.42;;;;;;;;;;5014207;28;20042;-63
2022/05/12 14:31:56;;;;;;;4.57;1.05;;;;;;;;;;5004688;28;20130;-63
2022/05/12 14:34:22;;;;;;;7.93;1.45;;;;;;;;;;5016949;28;20505;-63
2022/05/12 14:36:49;;;;;;;8.52;1.23;;;;;;;;;;5019411;28;20528;-63
2022/05/12 14:39:16;;;;;;;6.35;1.30;;;;;;;;;;5024119;28;20081;-63
2022/05/12 14:41:42;;;;;;;11.60;1.38;;;;;;;;;;5010452;28;20065;-63
2022/05/12 14:44:08;;;;;;;5.18;1.30;;;;;;;;;;5009405;28;20513;-63
2022/05/12 14:46:39;;;;;;;5.75;1.50;;;;;;;;;;5011838;28;20096;-63
2022/05/12 14:49:06;;;;;;;7.03;1.30;;;;;;;;;;5008821;28;20083;-63
2022/05/12 14:51:32;;;;;;;7.75;1.20;;;;;;;;;;5017606;28;20540;-63
2022/05/12 14:53:59;;;;;;;4.28;1.15;;;;;;;;;;5015879;28;20077;-63
2022/05/12 14:56:25;;;;;;;6.68;1.52;;;;;;;;;;5012274;28;20050;-63
2022/05/12 14:58:51;;;;;;;5.85;1.52;;;;;;;;;;5015259;28;20045;-63
2022/05/12 15:01:18;;;;;;;9.10;1.27;;;;;;;;;;5012695;28;20470;-62
2022/05/12 15:03:46;;;;;;;8.52;1.42;;;;;;;;;;4999206;28;20073;-63
2022/05/12 15:06:13;;;;;;;7.97;1.60;;;;;;;;;;5015232;28;20054;-63
2022/05/12 15:08:40;;;;;;;13.38;1.92;;;;;;;;;;5015568;28;20042;-63
2022/05/12 15:11:07;;;;;;;5.70;1.20;;;;;;;;;;5015127;28;20425;-63
2022/05/12 15:13:33;;;;;;;4.57;0.90;;;;;;;;;;5010113;28;20076;-63
2022/05/12 15:15:59;;;;;;;9.35;1.50;;;;;;;;;;5011855;28;20030;-63